Time,TemperatureF,DewpointF,PressureIn,WindDirection,WindDirectionDegrees,WindSpeedMPH,WindSpeedGustMPH,Humidity,HourlyPrecipIn,Conditions,Clouds,dailyrainin,SolarRadiationWatts/m^2,SoftwareType,DateUTC
2013-11-28 00:21:00,57.0,34.0,-100.00,East,95,14.0,19.0,41,0.00,,,0.00,0.000000,,2013-11-28 08:21:00,
2013-11-28 00:32:00,57.0,34.0,-100.00,East,95,14.0,19.0,41,0.00,,,0.00,0.000000,,2013-11-28 08:32:00,
2013-11-28 00:42:00,57.0,34.0,-100.00,East,95,14.0,19.0,41,0.00,,,0.00,0.000000,,2013-11-28 08:42:00,
2013-11-28 01:21:00,56.0,32.0,-100.00,East,89,14.0,19.0,40,0.00,,,0.00,1.000000,,2013-11-28 09:21:00,
2013-11-28 01:32:00,56.0,32.0,-100.00,East,89,14.0,19.0,40,0.00,,,0.00,1.000000,,2013-11-28 09:32:00,
2013-11-28 01:43:00,56.0,32.0,-100.00,East,89,14.0,19.0,40,0.00,,,0.00,1.000000,,2013-11-28 09:43:00,
2013-11-28 02:23:00,55.0,32.0,-100.00,East,94,17.0,23.0,41,0.00,,,-99.99,0.000000,,2013-11-28 10:23:00,
2013-11-28 02:33:00,55.0,32.0,-100.00,East,94,17.0,23.0,41,0.00,,,-99.99,0.000000,,2013-11-28 10:33:00,
2013-11-28 02:43:00,55.0,32.0,-100.00,East,94,17.0,23.0,41,0.00,,,-99.99,0.000000,,2013-11-28 10:43:00,
2013-11-28 03:11:00,55.0,32.0,-100.00,East,92,19.0,25.0,41,0.00,,,-99.99,0.000000,,2013-11-28 11:11:00,
2013-11-28 03:22:00,55.0,32.0,-100.00,East,92,19.0,25.0,41,0.00,,,-99.99,0.000000,,2013-11-28 11:22:00,
2013-11-28 03:33:00,55.0,32.0,-100.00,East,92,19.0,25.0,41,0.00,,,-99.99,0.000000,,2013-11-28 11:33:00,
2013-11-28 03:42:00,55.0,32.0,-100.00,East,92,19.0,25.0,41,0.00,,,-99.99,0.000000,,2013-11-28 11:42:00,
2013-11-28 04:21:00,55.0,31.0,-100.00,East,95,19.0,27.0,39,0.00,,,0.00,0.000000,,2013-11-28 12:21:00,
2013-11-28 04:32:00,55.0,31.0,-100.00,East,95,19.0,27.0,39,0.00,,,0.00,0.000000,,2013-11-28 12:32:00,
2013-11-28 04:42:00,55.0,31.0,-100.00,East,95,19.0,27.0,39,0.00,,,0.00,0.000000,,2013-11-28 12:42:00,
2013-11-28 05:21:00,55.0,31.0,-100.00,East,92,23.0,30.0,39,0.00,,,0.00,0.000000,,2013-11-28 13:21:00,
2013-11-28 05:32:00,55.0,31.0,-100.00,East,92,23.0,30.0,39,0.00,,,0.00,0.000000,,2013-11-28 13:32:00,
2013-11-28 05:42:00,55.0,31.0,-100.00,East,92,23.0,30.0,39,0.00,,,0.00,0.000000,,2013-11-28 13:42:00,
2013-11-28 06:22:00,54.0,31.0,-100.00,East,93,19.0,31.0,41,0.00,,,0.00,0.000000,,2013-11-28 14:22:00,
2013-11-28 06:32:00,54.0,31.0,-100.00,East,93,19.0,31.0,41,0.00,,,0.00,0.000000,,2013-11-28 14:32:00,
2013-11-28 06:42:00,54.0,31.0,-100.00,East,93,19.0,31.0,41,0.00,,,0.00,0.000000,,2013-11-28 14:42:00,
2013-11-28 07:12:00,54.0,30.0,-100.00,East,95,15.0,25.0,40,0.00,,,0.00,2.000000,,2013-11-28 15:12:00,
2013-11-28 07:21:00,54.0,30.0,-100.00,East,95,15.0,25.0,40,0.00,,,0.00,2.000000,,2013-11-28 15:21:00,
2013-11-28 07:33:00,54.0,30.0,-100.00,East,95,15.0,25.0,40,0.00,,,0.00,2.000000,,2013-11-28 15:33:00,
2013-11-28 07:43:00,54.0,30.0,-100.00,East,95,15.0,25.0,40,0.00,,,0.00,2.000000,,2013-11-28 15:43:00,
2013-11-28 08:23:00,55.0,31.0,-100.00,East,92,20.0,29.0,39,0.00,,,0.00,38.000000,,2013-11-28 16:23:00,
2013-11-28 08:33:00,55.0,31.0,-100.00,East,92,20.0,29.0,39,0.00,,,0.00,38.000000,,2013-11-28 16:33:00,
2013-11-28 08:43:00,55.0,31.0,-100.00,East,92,20.0,29.0,39,0.00,,,0.00,38.000000,,2013-11-28 16:43:00,
2013-11-28 09:23:00,56.0,31.0,-100.00,East,90,19.0,26.0,38,0.00,,,0.00,146.000000,,2013-11-28 17:23:00,
2013-11-28 09:33:00,56.0,31.0,-100.00,East,90,19.0,26.0,38,0.00,,,0.00,146.000000,,2013-11-28 17:33:00,
2013-11-28 09:42:00,56.0,31.0,-100.00,East,90,19.0,26.0,38,0.00,,,0.00,146.000000,,2013-11-28 17:42:00,
2013-11-28 10:21:00,56.0,30.0,-100.00,East,93,17.0,23.0,37,0.00,,,0.00,167.000000,,2013-11-28 18:21:00,
2013-11-28 10:32:00,56.0,30.0,-100.00,East,93,17.0,23.0,37,0.00,,,0.00,167.000000,,2013-11-28 18:32:00,
2013-11-28 10:42:00,56.0,30.0,-100.00,East,93,17.0,23.0,37,0.00,,,0.00,167.000000,,2013-11-28 18:42:00,
2013-11-28 11:22:00,59.0,31.0,-100.00,ENE,72,14.0,20.0,35,0.00,,,0.00,218.000000,,2013-11-28 19:22:00,
2013-11-28 11:32:00,59.0,31.0,-100.00,ENE,72,14.0,20.0,35,0.00,,,0.00,218.000000,,2013-11-28 19:32:00,
2013-11-28 11:42:00,59.0,31.0,-100.00,ENE,72,14.0,20.0,35,0.00,,,0.00,218.000000,,2013-11-28 19:42:00,
2013-11-28 12:21:00,60.0,29.0,-100.00,ENE,69,14.0,20.0,31,0.00,,,0.00,434.000000,,2013-11-28 20:21:00,
2013-11-28 12:32:00,60.0,29.0,-100.00,ENE,69,14.0,20.0,31,0.00,,,0.00,434.000000,,2013-11-28 20:32:00,
2013-11-28 12:42:00,60.0,29.0,-100.00,ENE,69,14.0,20.0,31,0.00,,,0.00,434.000000,,2013-11-28 20:42:00,
2013-11-28 13:21:00,62.0,31.0,-100.00,ENE,75,12.0,23.0,31,0.00,,,0.00,302.000000,,2013-11-28 21:21:00,
2013-11-28 13:32:00,62.0,31.0,-100.00,ENE,75,12.0,23.0,31,0.00,,,0.00,302.000000,,2013-11-28 21:32:00,
2013-11-28 13:43:00,62.0,31.0,-100.00,ENE,75,12.0,23.0,31,0.00,,,0.00,302.000000,,2013-11-28 21:43:00,
2013-11-28 14:23:00,62.0,33.0,-100.00,East,89,9.0,22.0,34,0.00,,,0.00,174.000000,,2013-11-28 22:23:00,
2013-11-28 14:33:00,62.0,33.0,-100.00,East,89,9.0,22.0,34,0.00,,,0.00,174.000000,,2013-11-28 22:33:00,
2013-11-28 14:42:00,62.0,33.0,-100.00,East,89,9.0,22.0,34,0.00,,,0.00,174.000000,,2013-11-28 22:42:00,
2013-11-28 15:21:00,61.0,36.0,-100.00,East,86,7.0,16.0,40,0.00,,,0.00,165.000000,,2013-11-28 23:21:00,
2013-11-28 15:33:00,61.0,36.0,-100.00,East,86,7.0,16.0,40,0.00,,,0.00,165.000000,,2013-11-28 23:33:00,
2013-11-28 15:42:00,61.0,36.0,-100.00,East,86,7.0,16.0,40,0.00,,,0.00,165.000000,,2013-11-28 23:42:00,
2013-11-28 16:11:00,60.0,35.0,-100.00,East,93,9.0,15.0,39,0.00,,,0.00,99.000000,,2013-11-29 00:11:00,
2013-11-28 16:21:00,60.0,35.0,-100.00,East,93,9.0,15.0,39,0.00,,,0.00,99.000000,,2013-11-29 00:21:00,
2013-11-28 16:32:00,60.0,35.0,-100.00,East,93,9.0,15.0,39,0.00,,,0.00,99.000000,,2013-11-29 00:32:00,
2013-11-28 16:42:00,60.0,35.0,-100.00,East,93,9.0,15.0,39,0.00,,,0.00,99.000000,,2013-11-29 00:42:00,
2013-11-28 17:21:00,59.0,37.0,-100.00,East,84,12.0,18.0,44,0.00,,,0.00,26.000000,,2013-11-29 01:21:00,
2013-11-28 17:32:00,59.0,37.0,-100.00,East,84,12.0,18.0,44,0.00,,,0.00,26.000000,,2013-11-29 01:32:00,
2013-11-28 17:42:00,59.0,37.0,-100.00,East,84,12.0,18.0,44,0.00,,,0.00,26.000000,,2013-11-29 01:42:00,
2013-11-28 18:21:00,60.0,36.0,-100.00,East,89,14.0,23.0,41,0.00,,,0.00,1.000000,,2013-11-29 02:21:00,
2013-11-28 18:32:00,60.0,36.0,-100.00,East,89,14.0,23.0,41,0.00,,,0.00,1.000000,,2013-11-29 02:32:00,
2013-11-28 18:42:00,60.0,36.0,-100.00,East,89,14.0,23.0,41,0.00,,,0.00,1.000000,,2013-11-29 02:42:00,
2013-11-28 19:21:00,59.0,37.0,-100.00,East,91,13.0,17.0,43,0.00,,,0.00,0.000000,,2013-11-29 03:21:00,
2013-11-28 19:33:00,59.0,37.0,-100.00,East,91,13.0,17.0,43,0.00,,,0.00,0.000000,,2013-11-29 03:33:00,
2013-11-28 19:43:00,59.0,37.0,-100.00,East,91,13.0,17.0,43,0.00,,,0.00,0.000000,,2013-11-29 03:43:00,
2013-11-28 20:23:00,59.0,38.0,-100.00,East,89,11.0,16.0,45,0.00,,,0.00,0.000000,,2013-11-29 04:23:00,
2013-11-28 20:33:00,59.0,38.0,-100.00,East,89,11.0,16.0,45,0.00,,,0.00,0.000000,,2013-11-29 04:33:00,
2013-11-28 20:42:00,59.0,38.0,-100.00,East,89,11.0,16.0,45,0.00,,,0.00,0.000000,,2013-11-29 04:42:00,
2013-11-28 21:12:00,58.0,37.0,-100.00,East,94,10.0,16.0,46,0.00,,,0.00,0.000000,,2013-11-29 05:12:00,
2013-11-28 21:22:00,58.0,37.0,-100.00,East,94,10.0,16.0,46,0.00,,,0.00,0.000000,,2013-11-29 05:22:00,
2013-11-28 21:32:00,58.0,37.0,-100.00,East,94,10.0,16.0,46,0.00,,,0.00,0.000000,,2013-11-29 05:32:00,
2013-11-28 21:42:00,58.0,37.0,-100.00,East,94,10.0,16.0,46,0.00,,,0.00,0.000000,,2013-11-29 05:42:00,
2013-11-28 22:12:00,58.0,37.0,-100.00,East,96,11.0,15.0,46,0.00,,,0.00,1.000000,,2013-11-29 06:12:00,
2013-11-28 22:22:00,58.0,37.0,-100.00,East,96,11.0,15.0,46,0.00,,,0.00,1.000000,,2013-11-29 06:22:00,
2013-11-28 22:33:00,58.0,37.0,-100.00,East,96,11.0,15.0,46,0.00,,,0.00,1.000000,,2013-11-29 06:33:00,
2013-11-28 22:42:00,58.0,37.0,-100.00,East,96,11.0,15.0,46,0.00,,,0.00,1.000000,,2013-11-29 06:42:00,
2013-11-28 23:12:00,58.0,37.0,-100.00,East,97,14.0,19.0,45,0.00,,,0.00,0.000000,,2013-11-29 07:12:00,
2013-11-28 23:21:00,58.0,37.0,-100.00,East,97,14.0,19.0,45,0.00,,,0.00,0.000000,,2013-11-29 07:21:00,
2013-11-28 23:31:00,58.0,37.0,-100.00,East,97,14.0,19.0,45,0.00,,,0.00,0.000000,,2013-11-29 07:31:00,
2013-11-28 23:42:00,58.0,37.0,-100.00,East,97,14.0,19.0,45,0.00,,,0.00,0.000000,,2013-11-29 07:42:00,